sensor_id;sensor_type;location;lat;lon;timestamp;pressure;altitude;pressure_sealevel;temperature;humidity
64139;BME280;50435;43.700;-79.318;2023-03-13T00:01:52;100063.58;;;1.07;38.58
64139;BME280;50435;43.700;-79.318;2023-03-13T00:04:19;100069.15;;;0.93;38.48
64139;BME280;50435;43.700;-79.318;2023-03-13T00:06:47;100069.49;;;1.14;38.47
64139;BME280;50435;43.700;-79.318;2023-03-13T00:09:15;100068.37;;;0.92;38.45
64139;BME280;50435;43.700;-79.318;2023-03-13T00:11:43;100068.18;;;0.89;38.52
64139;BME280;50435;43.700;-79.318;2023-03-13T00:14:11;100065.72;;;1.30;38.55
64139;BME280;50435;43.700;-79.318;2023-03-13T00:16:39;100066.00;;;1.06;38.60
64139;BME280;50435;43.700;-79.318;2023-03-13T00:19:07;100068.71;;;0.85;38.55
64139;BME280;50435;43.700;-79.318;2023-03-13T00:21:36;100065.83;;;1.08;38.52
64139;BME280;50435;43.700;-79.318;2023-03-13T00:24:04;100068.26;;;1.06;38.49
64139;BME280;50435;43.700;-79.318;2023-03-13T00:26:32;100065.52;;;1.36;38.46
64139;BME280;50435;43.700;-79.318;2023-03-13T00:28:59;100058.78;;;1.12;38.41
64139;BME280;50435;43.700;-79.318;2023-03-13T00:31:28;100060.35;;;1.10;38.51
64139;BME280;50435;43.700;-79.318;2023-03-13T00:33:59;100056.63;;;0.89;38.46
64139;BME280;50435;43.700;-79.318;2023-03-13T00:36:28;100049.50;;;1.11;38.49
64139;BME280;50435;43.700;-79.318;2023-03-13T00:38:57;100043.42;;;1.26;38.65
64139;BME280;50435;43.700;-79.318;2023-03-13T00:41:26;100040.65;;;1.22;38.76
64139;BME280;50435;43.700;-79.318;2023-03-13T00:43:54;100045.14;;;0.98;38.69
64139;BME280;50435;43.700;-79.318;2023-03-13T00:46:23;100042.68;;;1.35;38.68
64139;BME280;50435;43.700;-79.318;2023-03-13T00:48:51;100041.36;;;1.02;38.64
64139;BME280;50435;43.700;-79.318;2023-03-13T00:51:21;100039.38;;;1.31;38.61
64139;BME280;50435;43.700;-79.318;2023-03-13T00:53:49;100038.13;;;1.31;38.62
64139;BME280;50435;43.700;-79.318;2023-03-13T00:56:18;100037.47;;;1.30;38.61
64139;BME280;50435;43.700;-79.318;2023-03-13T00:58:48;100034.01;;;1.04;38.59
64139;BME280;50435;43.700;-79.318;2023-03-13T01:01:17;100024.36;;;1.07;38.59
64139;BME280;50435;43.700;-79.318;2023-03-13T01:03:48;100025.10;;;1.06;38.61
64139;BME280;50435;43.700;-79.318;2023-03-13T01:06:18;100021.05;;;1.00;38.69
64139;BME280;50435;43.700;-79.318;2023-03-13T01:08:46;100020.42;;;1.02;38.60
64139;BME280;50435;43.700;-79.318;2023-03-13T01:11:15;100013.78;;;1.02;38.72
64139;BME280;50435;43.700;-79.318;2023-03-13T01:13:43;100014.42;;;1.02;38.71
64139;BME280;50435;43.700;-79.318;2023-03-13T01:16:13;100014.01;;;1.01;38.65
64139;BME280;50435;43.700;-79.318;2023-03-13T01:18:45;100013.42;;;1.22;38.80
64139;BME280;50435;43.700;-79.318;2023-03-13T01:21:13;100012.23;;;1.20;38.83
64139;BME280;50435;43.700;-79.318;2023-03-13T01:23:41;100012.94;;;0.80;38.74
64139;BME280;50435;43.700;-79.318;2023-03-13T01:26:09;100011.78;;;1.06;38.71
64139;BME280;50435;43.700;-79.318;2023-03-13T01:28:38;100009.92;;;1.02;38.71
64139;BME280;50435;43.700;-79.318;2023-03-13T01:31:14;100005.51;;;1.03;38.68
64139;BME280;50435;43.700;-79.318;2023-03-13T01:33:42;100003.12;;;1.09;38.60
64139;BME280;50435;43.700;-79.318;2023-03-13T01:36:10;100002.46;;;0.85;38.65
64139;BME280;50435;43.700;-79.318;2023-03-13T01:38:39;99997.77;;;1.09;38.57
64139;BME280;50435;43.700;-79.318;2023-03-13T01:41:09;99995.85;;;0.78;38.69
64139;BME280;50435;43.700;-79.318;2023-03-13T01:43:37;99987.48;;;0.88;38.59
64139;BME280;50435;43.700;-79.318;2023-03-13T01:46:12;99988.43;;;0.87;38.63
64139;BME280;50435;43.700;-79.318;2023-03-13T01:48:45;99984.97;;;1.38;38.59
64139;BME280;50435;43.700;-79.318;2023-03-13T01:51:18;99983.42;;;1.08;38.59
64139;BME280;50435;43.700;-79.318;2023-03-13T01:53:49;99984.11;;;1.30;38.66
64139;BME280;50435;43.700;-79.318;2023-03-13T01:56:21;99980.89;;;1.08;38.61
64139;BME280;50435;43.700;-79.318;2023-03-13T01:58:51;99977.93;;;0.81;38.65
64139;BME280;50435;43.700;-79.318;2023-03-13T02:01:19;99976.40;;;1.06;38.63
64139;BME280;50435;43.700;-79.318;2023-03-13T02:03:48;99973.03;;;0.82;38.65
64139;BME280;50435;43.700;-79.318;2023-03-13T02:06:16;99973.03;;;1.06;38.60
64139;BME280;50435;43.700;-79.318;2023-03-13T02:08:47;99976.09;;;0.87;38.71
64139;BME280;50435;43.700;-79.318;2023-03-13T02:11:24;99977.42;;;0.88;38.56
64139;BME280;50435;43.700;-79.318;2023-03-13T02:13:55;99977.28;;;0.85;38.55
64139;BME280;50435;43.700;-79.318;2023-03-13T02:16:24;99976.34;;;0.88;38.49
64139;BME280;50435;43.700;-79.318;2023-03-13T02:18:52;99977.01;;;1.11;38.55
64139;BME280;50435;43.700;-79.318;2023-03-13T02:21:30;99978.09;;;1.11;38.54
64139;BME280;50435;43.700;-79.318;2023-03-13T02:24:11;99973.93;;;1.05;38.60
64139;BME280;50435;43.700;-79.318;2023-03-13T02:26:39;99974.21;;;1.06;38.62
64139;BME280;50435;43.700;-79.318;2023-03-13T02:29:07;99979.66;;;1.26;38.79
64139;BME280;50435;43.700;-79.318;2023-03-13T02:31:36;99978.58;;;1.28;38.76
64139;BME280;50435;43.700;-79.318;2023-03-13T02:34:04;99981.53;;;1.46;38.75
64139;BME280;50435;43.700;-79.318;2023-03-13T02:36:31;99976.45;;;1.44;38.86
64139;BME280;50435;43.700;-79.318;2023-03-13T02:39:02;99976.92;;;1.22;38.95
64139;BME280;50435;43.700;-79.318;2023-03-13T02:41:32;99976.52;;;0.79;38.74
64139;BME280;50435;43.700;-79.318;2023-03-13T02:44:00;99971.68;;;1.29;38.72
64139;BME280;50435;43.700;-79.318;2023-03-13T02:46:27;99967.60;;;1.26;38.80
64139;BME280;50435;43.700;-79.318;2023-03-13T02:48:55;99968.40;;;1.24;38.74
64139;BME280;50435;43.700;-79.318;2023-03-13T02:51:28;99970.56;;;1.23;38.80
64139;BME280;50435;43.700;-79.318;2023-03-13T02:53:59;99966.11;;;1.19;39.00
64139;BME280;50435;43.700;-79.318;2023-03-13T02:56:28;99967.95;;;1.25;38.85
64139;BME280;50435;43.700;-79.318;2023-03-13T02:58:57;99963.76;;;1.16;39.01
64139;BME280;50435;43.700;-79.318;2023-03-13T03:01:25;99960.65;;;1.21;39.05
64139;BME280;50435;43.700;-79.318;2023-03-13T03:03:52;99963.49;;;1.22;38.97
64139;BME280;50435;43.700;-79.318;2023-03-13T03:06:19;99961.41;;;1.17;39.10
64139;BME280;50435;43.700;-79.318;2023-03-13T03:08:47;99967.98;;;1.40;39.06
64139;BME280;50435;43.700;-79.318;2023-03-13T03:11:14;99966.39;;;1.26;39.06
64139;BME280;50435;43.700;-79.318;2023-03-13T03:13:41;99969.75;;;1.00;39.00
64139;BME280;50435;43.700;-79.318;2023-03-13T03:16:11;99966.79;;;1.24;39.01
64139;BME280;50435;43.700;-79.318;2023-03-13T03:18:40;99966.73;;;1.24;39.02
64139;BME280;50435;43.700;-79.318;2023-03-13T03:21:07;99962.93;;;0.96;39.05
64139;BME280;50435;43.700;-79.318;2023-03-13T03:23:35;99963.01;;;1.23;39.11
64139;BME280;50435;43.700;-79.318;2023-03-13T03:26:05;99955.97;;;1.44;39.13
64139;BME280;50435;43.700;-79.318;2023-03-13T03:28:32;99957.19;;;1.19;39.13
64139;BME280;50435;43.700;-79.318;2023-03-13T03:31:03;99950.96;;;1.18;39.19
64139;BME280;50435;43.700;-79.318;2023-03-13T03:33:30;99951.74;;;1.20;39.13
64139;BME280;50435;43.700;-79.318;2023-03-13T03:35:59;99946.89;;;1.21;39.10
64139;BME280;50435;43.700;-79.318;2023-03-13T03:38:26;99942.10;;;1.25;39.01
64139;BME280;50435;43.700;-79.318;2023-03-13T03:40:54;99936.60;;;1.32;38.93
64139;BME280;50435;43.700;-79.318;2023-03-13T03:43:22;99936.43;;;0.83;38.91
64139;BME280;50435;43.700;-79.318;2023-03-13T03:45:49;99934.53;;;1.08;38.89
64139;BME280;50435;43.700;-79.318;2023-03-13T03:48:17;99936.73;;;1.35;38.86
64139;BME280;50435;43.700;-79.318;2023-03-13T03:50:44;99935.88;;;1.04;38.93
64139;BME280;50435;43.700;-79.318;2023-03-13T03:53:12;99929.13;;;1.07;38.93
64139;BME280;50435;43.700;-79.318;2023-03-13T03:55:39;99929.71;;;0.83;38.98
64139;BME280;50435;43.700;-79.318;2023-03-13T03:58:06;99925.26;;;1.29;38.96
64139;BME280;50435;43.700;-79.318;2023-03-13T04:00:33;99926.93;;;1.04;38.96
64139;BME280;50435;43.700;-79.318;2023-03-13T04:03:01;99923.57;;;0.84;38.95
64139;BME280;50435;43.700;-79.318;2023-03-13T04:05:28;99920.37;;;1.28;39.01
64139;BME280;50435;43.700;-79.318;2023-03-13T04:07:56;99921.79;;;1.20;39.11
64139;BME280;50435;43.700;-79.318;2023-03-13T04:10:23;99923.64;;;1.16;39.24
64139;BME280;50435;43.700;-79.318;2023-03-13T04:12:51;99923.46;;;0.97;39.06
64139;BME280;50435;43.700;-79.318;2023-03-13T04:15:18;99919.84;;;1.23;39.05
64139;BME280;50435;43.700;-79.318;2023-03-13T04:17:46;99918.08;;;1.23;39.09
64139;BME280;50435;43.700;-79.318;2023-03-13T04:20:14;99917.56;;;1.24;39.15
64139;BME280;50435;43.700;-79.318;2023-03-13T04:22:42;99913.18;;;0.99;39.02
64139;BME280;50435;43.700;-79.318;2023-03-13T04:25:10;99906.38;;;1.27;39.02
64139;BME280;50435;43.700;-79.318;2023-03-13T04:27:37;99901.47;;;1.03;39.08
64139;BME280;50435;43.700;-79.318;2023-03-13T04:30:06;99900.85;;;0.81;39.03
64139;BME280;50435;43.700;-79.318;2023-03-13T04:32:33;99894.17;;;1.25;39.12
64139;BME280;50435;43.700;-79.318;2023-03-13T04:35:00;99897.37;;;1.01;39.04
64139;BME280;50435;43.700;-79.318;2023-03-13T04:37:28;99890.55;;;1.30;39.03
64139;BME280;50435;43.700;-79.318;2023-03-13T04:39:55;99890.03;;;0.99;39.07
64139;BME280;50435;43.700;-79.318;2023-03-13T04:42:22;99888.37;;;1.06;38.96
64139;BME280;50435;43.700;-79.318;2023-03-13T04:44:49;99888.60;;;0.80;38.99
64139;BME280;50435;43.700;-79.318;2023-03-13T04:47:17;99885.55;;;1.01;39.06
64139;BME280;50435;43.700;-79.318;2023-03-13T04:49:44;99881.45;;;1.02;39.05
64139;BME280;50435;43.700;-79.318;2023-03-13T04:52:11;99878.06;;;0.99;39.05
64139;BME280;50435;43.700;-79.318;2023-03-13T04:54:39;99873.77;;;1.02;38.99
64139;BME280;50435;43.700;-79.318;2023-03-13T04:57:06;99875.77;;;0.80;39.02
64139;BME280;50435;43.700;-79.318;2023-03-13T04:59:33;99872.56;;;1.00;39.01
64139;BME280;50435;43.700;-79.318;2023-03-13T05:02:00;99871.45;;;1.05;39.00
64139;BME280;50435;43.700;-79.318;2023-03-13T05:04:28;99872.08;;;0.75;39.10
64139;BME280;50435;43.700;-79.318;2023-03-13T05:06:55;99873.37;;;0.84;39.03
64139;BME280;50435;43.700;-79.318;2023-03-13T05:09:23;99872.72;;;1.11;39.02
64139;BME280;50435;43.700;-79.318;2023-03-13T05:11:50;99874.04;;;1.32;38.96
64139;BME280;50435;43.700;-79.318;2023-03-13T05:14:18;99869.06;;;1.02;38.98
64139;BME280;50435;43.700;-79.318;2023-03-13T05:16:45;99871.82;;;1.30;39.03
64139;BME280;50435;43.700;-79.318;2023-03-13T05:19:12;99870.66;;;1.03;39.02
64139;BME280;50435;43.700;-79.318;2023-03-13T05:21:40;99870.68;;;1.32;38.99
64139;BME280;50435;43.700;-79.318;2023-03-13T05:24:07;99871.10;;;1.27;39.05
64139;BME280;50435;43.700;-79.318;2023-03-13T05:26:35;99871.84;;;1.05;39.02
64139;BME280;50435;43.700;-79.318;2023-03-13T05:29:02;99872.65;;;1.05;39.00
64139;BME280;50435;43.700;-79.318;2023-03-13T05:31:30;99871.97;;;1.27;39.06
64139;BME280;50435;43.700;-79.318;2023-03-13T05:33:57;99867.95;;;1.25;38.98
64139;BME280;50435;43.700;-79.318;2023-03-13T05:36:24;99865.06;;;1.15;39.18
64139;BME280;50435;43.700;-79.318;2023-03-13T05:38:51;99859.92;;;1.11;39.25
64139;BME280;50435;43.700;-79.318;2023-03-13T05:41:18;99858.06;;;1.18;39.23
64139;BME280;50435;43.700;-79.318;2023-03-13T05:43:45;99859.96;;;1.08;39.32
64139;BME280;50435;43.700;-79.318;2023-03-13T05:46:13;99854.07;;;1.30;39.46
64139;BME280;50435;43.700;-79.318;2023-03-13T05:48:40;99853.20;;;1.06;39.46
64139;BME280;50435;43.700;-79.318;2023-03-13T05:51:07;99849.94;;;1.29;39.42
64139;BME280;50435;43.700;-79.318;2023-03-13T05:53:35;99852.28;;;1.06;39.42
64139;BME280;50435;43.700;-79.318;2023-03-13T05:56:03;99846.56;;;1.09;39.28
64139;BME280;50435;43.700;-79.318;2023-03-13T05:58:31;99845.47;;;1.04;39.49
64139;BME280;50435;43.700;-79.318;2023-03-13T06:00:58;99843.43;;;1.01;39.59
64139;BME280;50435;43.700;-79.318;2023-03-13T06:03:26;99841.26;;;1.07;39.43
64139;BME280;50435;43.700;-79.318;2023-03-13T06:05:57;99838.48;;;1.04;39.46
64139;BME280;50435;43.700;-79.318;2023-03-13T06:08:25;99834.67;;;1.08;39.39
64139;BME280;50435;43.700;-79.318;2023-03-13T06:10:52;99833.87;;;0.85;39.26
64139;BME280;50435;43.700;-79.318;2023-03-13T06:13:19;99833.02;;;1.17;39.27
64139;BME280;50435;43.700;-79.318;2023-03-13T06:15:50;99828.90;;;0.92;39.21
64139;BME280;50435;43.700;-79.318;2023-03-13T06:18:18;99833.15;;;0.69;39.20
64139;BME280;50435;43.700;-79.318;2023-03-13T06:20:45;99833.89;;;0.67;39.20
64139;BME280;50435;43.700;-79.318;2023-03-13T06:23:14;99835.55;;;0.92;39.29
64139;BME280;50435;43.700;-79.318;2023-03-13T06:25:46;99835.44;;;0.94;39.19
64139;BME280;50435;43.700;-79.318;2023-03-13T06:28:13;99837.15;;;0.74;39.19
64139;BME280;50435;43.700;-79.318;2023-03-13T06:30:41;99830.41;;;0.90;39.27
64139;BME280;50435;43.700;-79.318;2023-03-13T06:33:08;99831.57;;;1.20;39.27
64139;BME280;50435;43.700;-79.318;2023-03-13T06:35:39;99831.23;;;0.68;39.15
64139;BME280;50435;43.700;-79.318;2023-03-13T06:38:08;99833.26;;;0.98;39.16
64139;BME280;50435;43.700;-79.318;2023-03-13T06:40:35;99830.98;;;1.20;39.14
64139;BME280;50435;43.700;-79.318;2023-03-13T06:43:03;99834.74;;;0.94;39.15
64139;BME280;50435;43.700;-79.318;2023-03-13T06:45:30;99833.10;;;0.96;39.11
64139;BME280;50435;43.700;-79.318;2023-03-13T06:47:57;99831.29;;;0.91;39.17
64139;BME280;50435;43.700;-79.318;2023-03-13T06:50:24;99827.25;;;0.87;39.25
64139;BME280;50435;43.700;-79.318;2023-03-13T06:52:51;99822.06;;;1.21;39.18
64139;BME280;50435;43.700;-79.318;2023-03-13T06:55:19;99820.08;;;1.20;39.13
64139;BME280;50435;43.700;-79.318;2023-03-13T06:57:49;99820.06;;;1.21;39.20
64139;BME280;50435;43.700;-79.318;2023-03-13T07:00:18;99814.55;;;0.90;39.20
64139;BME280;50435;43.700;-79.318;2023-03-13T07:02:45;99812.30;;;1.12;39.31
64139;BME280;50435;43.700;-79.318;2023-03-13T07:05:12;99810.06;;;1.04;39.38
64139;BME280;50435;43.700;-79.318;2023-03-13T07:07:40;99807.99;;;1.06;39.38
64139;BME280;50435;43.700;-79.318;2023-03-13T07:10:09;99808.28;;;0.80;39.38
64139;BME280;50435;43.700;-79.318;2023-03-13T07:12:37;99809.22;;;0.61;39.37
64139;BME280;50435;43.700;-79.318;2023-03-13T07:15:06;99803.75;;;0.87;39.33
64139;BME280;50435;43.700;-79.318;2023-03-13T07:17:33;99802.61;;;0.68;39.26
64139;BME280;50435;43.700;-79.318;2023-03-13T07:20:01;99798.93;;;0.89;39.21
64139;BME280;50435;43.700;-79.318;2023-03-13T07:22:29;99796.35;;;0.92;39.16
64139;BME280;50435;43.700;-79.318;2023-03-13T07:24:56;99796.58;;;0.67;39.22
64139;BME280;50435;43.700;-79.318;2023-03-13T07:27:24;99794.54;;;1.14;39.30
64139;BME280;50435;43.700;-79.318;2023-03-13T07:29:51;99795.89;;;1.07;39.35
64139;BME280;50435;43.700;-79.318;2023-03-13T07:32:19;99795.62;;;1.03;39.48
64139;BME280;50435;43.700;-79.318;2023-03-13T07:34:46;99792.56;;;0.97;39.47
64139;BME280;50435;43.700;-79.318;2023-03-13T07:37:14;99792.65;;;0.98;39.44
64139;BME280;50435;43.700;-79.318;2023-03-13T07:39:42;99793.98;;;1.02;39.54
64139;BME280;50435;43.700;-79.318;2023-03-13T07:42:10;99787.45;;;1.06;39.51
64139;BME280;50435;43.700;-79.318;2023-03-13T07:44:38;99787.18;;;0.61;39.33
64139;BME280;50435;43.700;-79.318;2023-03-13T07:47:05;99787.25;;;0.63;39.30
64139;BME280;50435;43.700;-79.318;2023-03-13T07:49:33;99780.69;;;0.85;39.31
64139;BME280;50435;43.700;-79.318;2023-03-13T07:52:00;99780.81;;;0.85;39.36
64139;BME280;50435;43.700;-79.318;2023-03-13T07:54:28;99779.76;;;1.10;39.29
64139;BME280;50435;43.700;-79.318;2023-03-13T07:56:55;99778.47;;;1.04;39.39
64139;BME280;50435;43.700;-79.318;2023-03-13T07:59:22;99776.77;;;1.02;39.45
64139;BME280;50435;43.700;-79.318;2023-03-13T08:01:49;99772.33;;;0.79;39.37
64139;BME280;50435;43.700;-79.318;2023-03-13T08:04:16;99773.25;;;0.82;39.39
64139;BME280;50435;43.700;-79.318;2023-03-13T08:06:43;99772.33;;;0.84;39.32
64139;BME280;50435;43.700;-79.318;2023-03-13T08:09:11;99768.98;;;0.87;39.26
64139;BME280;50435;43.700;-79.318;2023-03-13T08:11:39;99765.73;;;1.05;39.38
64139;BME280;50435;43.700;-79.318;2023-03-13T08:14:07;99764.91;;;0.82;39.32
64139;BME280;50435;43.700;-79.318;2023-03-13T08:16:34;99763.33;;;1.09;39.33
64139;BME280;50435;43.700;-79.318;2023-03-13T08:19:03;99762.19;;;0.79;39.36
64139;BME280;50435;43.700;-79.318;2023-03-13T08:21:32;99764.09;;;1.07;39.29
64139;BME280;50435;43.700;-79.318;2023-03-13T08:24:01;99765.24;;;1.09;39.36
64139;BME280;50435;43.700;-79.318;2023-03-13T08:26:30;99766.96;;;1.05;39.40
64139;BME280;50435;43.700;-79.318;2023-03-13T08:28:59;99770.12;;;1.05;39.37
64139;BME280;50435;43.700;-79.318;2023-03-13T08:31:29;99772.47;;;1.04;39.40
64139;BME280;50435;43.700;-79.318;2023-03-13T08:33:58;99769.69;;;0.80;39.34
64139;BME280;50435;43.700;-79.318;2023-03-13T08:36:27;99770.41;;;1.11;39.26
64139;BME280;50435;43.700;-79.318;2023-03-13T08:38:58;99773.74;;;0.78;39.42
64139;BME280;50435;43.700;-79.318;2023-03-13T08:41:28;99771.92;;;0.79;39.25
64139;BME280;50435;43.700;-79.318;2023-03-13T08:43:56;99773.99;;;1.08;39.27
64139;BME280;50435;43.700;-79.318;2023-03-13T08:46:24;99773.22;;;1.11;39.33
64139;BME280;50435;43.700;-79.318;2023-03-13T08:48:53;99778.45;;;0.75;39.41
64139;BME280;50435;43.700;-79.318;2023-03-13T08:51:23;99777.04;;;1.05;39.31
64139;BME280;50435;43.700;-79.318;2023-03-13T08:53:50;99777.05;;;0.82;39.28
64139;BME280;50435;43.700;-79.318;2023-03-13T08:56:20;99782.04;;;1.16;39.45
64139;BME280;50435;43.700;-79.318;2023-03-13T08:58:49;99787.03;;;1.14;39.54
64139;BME280;50435;43.700;-79.318;2023-03-13T09:01:18;99787.13;;;0.88;39.55
64139;BME280;50435;43.700;-79.318;2023-03-13T09:03:47;99791.69;;;0.93;39.49
64139;BME280;50435;43.700;-79.318;2023-03-13T09:06:14;99790.89;;;0.72;39.42
64139;BME280;50435;43.700;-79.318;2023-03-13T09:08:42;99791.39;;;0.80;39.26
64139;BME280;50435;43.700;-79.318;2023-03-13T09:11:11;99792.46;;;0.74;39.32
64139;BME280;50435;43.700;-79.318;2023-03-13T09:13:41;99795.36;;;0.99;39.41
64139;BME280;50435;43.700;-79.318;2023-03-13T09:16:10;99793.20;;;1.01;39.35
64139;BME280;50435;43.700;-79.318;2023-03-13T09:18:39;99792.27;;;0.78;39.30
64139;BME280;50435;43.700;-79.318;2023-03-13T09:21:08;99788.19;;;1.03;39.34
64139;BME280;50435;43.700;-79.318;2023-03-13T09:23:35;99785.23;;;1.05;39.27
64139;BME280;50435;43.700;-79.318;2023-03-13T09:26:03;99780.30;;;0.98;39.32
64139;BME280;50435;43.700;-79.318;2023-03-13T09:28:32;99788.32;;;0.99;39.44
64139;BME280;50435;43.700;-79.318;2023-03-13T09:31:06;99784.09;;;0.92;39.45
64139;BME280;50435;43.700;-79.318;2023-03-13T09:33:34;99779.06;;;0.67;39.44
64139;BME280;50435;43.700;-79.318;2023-03-13T09:36:02;99774.14;;;0.67;39.37
64139;BME280;50435;43.700;-79.318;2023-03-13T09:38:30;99780.44;;;0.70;39.49
64139;BME280;50435;43.700;-79.318;2023-03-13T09:41:03;99785.41;;;0.97;39.30
64139;BME280;50435;43.700;-79.318;2023-03-13T09:43:39;99785.78;;;0.67;39.43
64139;BME280;50435;43.700;-79.318;2023-03-13T09:46:14;99785.24;;;0.69;39.40
64139;BME280;50435;43.700;-79.318;2023-03-13T09:48:45;99790.23;;;0.68;39.40
64139;BME280;50435;43.700;-79.318;2023-03-13T09:51:18;99790.78;;;0.63;39.40
64139;BME280;50435;43.700;-79.318;2023-03-13T09:53:51;99788.91;;;0.73;39.40
64139;BME280;50435;43.700;-79.318;2023-03-13T09:56:24;99789.63;;;0.67;39.42
64139;BME280;50435;43.700;-79.318;2023-03-13T09:58:56;99792.50;;;0.65;39.49
64139;BME280;50435;43.700;-79.318;2023-03-13T10:01:28;99793.68;;;0.94;39.43
64139;BME280;50435;43.700;-79.318;2023-03-13T10:04:04;99793.18;;;0.34;39.59
64139;BME280;50435;43.700;-79.318;2023-03-13T10:06:35;99788.63;;;0.36;39.54
64139;BME280;50435;43.700;-79.318;2023-03-13T10:09:14;99787.55;;;0.62;39.46
64139;BME280;50435;43.700;-79.318;2023-03-13T10:11:46;99786.27;;;0.88;39.52
64139;BME280;50435;43.700;-79.318;2023-03-13T10:14:21;99781.87;;;1.09;39.50
64139;BME280;50435;43.700;-79.318;2023-03-13T10:16:55;99785.65;;;0.91;39.43
64139;BME280;50435;43.700;-79.318;2023-03-13T10:19:30;99788.14;;;0.87;39.40
64139;BME280;50435;43.700;-79.318;2023-03-13T10:21:59;99788.41;;;0.62;39.42
64139;BME280;50435;43.700;-79.318;2023-03-13T10:24:32;99790.57;;;0.55;39.49
64139;BME280;50435;43.700;-79.318;2023-03-13T10:26:59;99789.38;;;1.08;39.46
64139;BME280;50435;43.700;-79.318;2023-03-13T10:29:28;99790.31;;;0.81;39.52
64139;BME280;50435;43.700;-79.318;2023-03-13T10:31:57;99789.09;;;0.79;39.51
64139;BME280;50435;43.700;-79.318;2023-03-13T10:34:28;99789.04;;;0.56;39.50
64139;BME280;50435;43.700;-79.318;2023-03-13T10:36:58;99789.90;;;0.92;39.43
64139;BME280;50435;43.700;-79.318;2023-03-13T10:39:27;99790.17;;;0.60;39.48
64139;BME280;50435;43.700;-79.318;2023-03-13T10:41:58;99789.04;;;0.61;39.42
64139;BME280;50435;43.700;-79.318;2023-03-13T10:44:31;99791.34;;;0.81;39.47
64139;BME280;50435;43.700;-79.318;2023-03-13T10:47:00;99788.48;;;0.81;39.48
64139;BME280;50435;43.700;-79.318;2023-03-13T10:49:28;99790.86;;;0.08;39.47
64139;BME280;50435;43.700;-79.318;2023-03-13T10:51:57;99789.97;;;0.69;39.69
64139;BME280;50435;43.700;-79.318;2023-03-13T10:54:27;99787.19;;;0.94;39.67
64139;BME280;50435;43.700;-79.318;2023-03-13T10:57:13;99789.02;;;0.89;39.75
64139;BME280;50435;43.700;-79.318;2023-03-13T10:59:48;99791.16;;;0.91;39.65
64139;BME280;50435;43.700;-79.318;2023-03-13T11:02:22;99787.94;;;0.63;39.90
64139;BME280;50435;43.700;-79.318;2023-03-13T11:04:52;99793.53;;;0.64;39.72
64139;BME280;50435;43.700;-79.318;2023-03-13T11:07:25;99798.57;;;1.18;39.70
64139;BME280;50435;43.700;-79.318;2023-03-13T11:10:13;99793.30;;;0.67;39.70
64139;BME280;50435;43.700;-79.318;2023-03-13T11:12:44;99795.64;;;0.83;39.76
64139;BME280;50435;43.700;-79.318;2023-03-13T11:15:15;99799.16;;;0.86;39.80
64139;BME280;50435;43.700;-79.318;2023-03-13T11:17:47;99794.90;;;0.62;39.83
64139;BME280;50435;43.700;-79.318;2023-03-13T11:20:22;99799.08;;;0.74;39.59
64139;BME280;50435;43.700;-79.318;2023-03-13T11:23:02;99796.99;;;0.99;39.57
64139;BME280;50435;43.700;-79.318;2023-03-13T11:25:34;99797.54;;;0.73;39.62
64139;BME280;50435;43.700;-79.318;2023-03-13T11:28:14;99800.14;;;0.73;39.63
64139;BME280;50435;43.700;-79.318;2023-03-13T11:30:58;99804.51;;;0.75;39.56
64139;BME280;50435;43.700;-79.318;2023-03-13T11:33:37;99804.43;;;0.71;39.59
64139;BME280;50435;43.700;-79.318;2023-03-13T11:36:14;99804.72;;;1.00;39.52
64139;BME280;50435;43.700;-79.318;2023-03-13T11:38:48;99807.06;;;0.64;39.64
64139;BME280;50435;43.700;-79.318;2023-03-13T11:41:28;99812.64;;;0.75;39.52
64139;BME280;50435;43.700;-79.318;2023-03-13T11:44:11;99816.80;;;0.43;39.64
64139;BME280;50435;43.700;-79.318;2023-03-13T11:46:51;99817.65;;;0.72;39.56
64139;BME280;50435;43.700;-79.318;2023-03-13T11:49:33;99819.52;;;0.50;39.53
64139;BME280;50435;43.700;-79.318;2023-03-13T11:52:15;99821.22;;;0.74;39.52
64139;BME280;50435;43.700;-79.318;2023-03-13T11:54:53;99825.04;;;0.79;39.53
64139;BME280;50435;43.700;-79.318;2023-03-13T11:57:28;99824.50;;;0.69;39.47
64139;BME280;50435;43.700;-79.318;2023-03-13T12:00:14;99827.31;;;0.68;39.67
64139;BME280;50435;43.700;-79.318;2023-03-13T12:02:47;99825.98;;;0.70;39.57
64139;BME280;50435;43.700;-79.318;2023-03-13T12:05:18;99828.22;;;0.72;39.46
64139;BME280;50435;43.700;-79.318;2023-03-13T12:07:52;99827.70;;;0.74;39.50
64139;BME280;50435;43.700;-79.318;2023-03-13T12:10:26;99825.61;;;0.70;39.56
64139;BME280;50435;43.700;-79.318;2023-03-13T12:13:00;99834.13;;;0.70;39.61
64139;BME280;50435;43.700;-79.318;2023-03-13T12:15:31;99836.85;;;0.46;39.47
64139;BME280;50435;43.700;-79.318;2023-03-13T12:18:08;99835.75;;;0.71;39.52
64139;BME280;50435;43.700;-79.318;2023-03-13T12:20:43;99838.20;;;0.73;39.53
64139;BME280;50435;43.700;-79.318;2023-03-13T12:23:17;99841.97;;;1.24;39.51
64139;BME280;50435;43.700;-79.318;2023-03-13T12:25:49;99844.30;;;0.62;39.66
64139;BME280;50435;43.700;-79.318;2023-03-13T12:28:24;99849.53;;;0.63;39.72
64139;BME280;50435;43.700;-79.318;2023-03-13T12:31:00;99854.11;;;0.64;39.68
64139;BME280;50435;43.700;-79.318;2023-03-13T12:33:34;99855.81;;;0.76;39.87
64139;BME280;50435;43.700;-79.318;2023-03-13T12:36:10;99862.88;;;0.37;39.66
64139;BME280;50435;43.700;-79.318;2023-03-13T12:38:43;99864.17;;;0.70;39.63
64139;BME280;50435;43.700;-79.318;2023-03-13T12:41:19;99864.14;;;0.74;39.50
64139;BME280;50435;43.700;-79.318;2023-03-13T12:43:50;99863.05;;;0.69;39.62
64139;BME280;50435;43.700;-79.318;2023-03-13T12:46:33;99861.41;;;0.84;39.73
64139;BME280;50435;43.700;-79.318;2023-03-13T12:49:30;99860.23;;;0.56;39.87
64139;BME280;50435;43.700;-79.318;2023-03-13T12:52:15;99864.16;;;0.88;39.69
64139;BME280;50435;43.700;-79.318;2023-03-13T12:54:56;99866.69;;;0.68;39.65
64139;BME280;50435;43.700;-79.318;2023-03-13T12:57:54;99873.96;;;0.73;39.53
64139;BME280;50435;43.700;-79.318;2023-03-13T13:00:28;99872.93;;;0.90;39.38
64139;BME280;50435;43.700;-79.318;2023-03-13T13:03:17;99874.00;;;0.82;39.45